Terminal Aerodrome Forecast
Issued by NWS Topeka, KS

Home | Current Version | Previous Version | Graphics & Text | Print | Product List | Glossary On
Versions: 1 2 3 4 5 6 7 8 9 10 11 12 13 14 15 16 17 18 19 20 21 22 23 24 25 26 27
870
FTUS43 KTOP 281246 AAA
TAFTOP
TAF AMD
KTOP 281246Z 2813/2912 11007KT P6SM SCT020 BKN035
     FM281500 22008KT P6SM SCT040
     FM290000 23003KT P6SM FEW250=

USA.gov is the U.S. government's official web portal to all federal, state and local government web resources and services.